الصفحة الرئيسية
METAR-TAF:

METAR-TAF

مطار :

لاباز, بوليفيا

دائرة عرض: 16-31S, خط طول: 068-11W, ارتفاع: 4058 متر

مراقبة الطقس الحالي

تاريخ ووقت الإصدار 52 دقيقة قبل الساعة 09:00UTC
ريح 2 عقدةمن اتجاهات متغيرة
درجة الحرارة 4°درجة مئوية
الرطوبة 81%
ضغط 1037 hPa
الرؤية 10 كم أو أكثر

METAR: SLLP 140900Z VRB02KT 9999 NSC 04/01 Q1037

زمن: 05:52 (09:52 UTC)

توقعات

تاريخ ووقت الإصدار 5ساعات و 12 دقيقة قبل الساعة 04:40UTC
التوقعات صالحة من14 الساعة 06 UTC إلى 15 الساعة 06 UTC
ريح 5 عقدة من الشرق/الشمال الشرقي
الرؤية: 3000 متر
غيوم قليلة على ارتفاع 200 قدم
غيوم متفرقة على ارتفاع 1200 قدم
ضباب بالجوار
أصبح
من 14 الساعة 12 UTC إلى 14 الساعة 14 UTC
ريح 10 عقدة من الجنوب الشرقي
الرؤية 10 كم أو أكثر
غيوم متفرقة على ارتفاع 1500 قدم
غيوم قليلة على ارتفاع 1700 قدم, مزنة ركامية.
غيوم متفرقة على ارتفاع 7000 قدم
مؤقت
من 14 الساعة 18 UTC إلى 14 الساعة 22 UTC
الرؤية: 5000 متر
عاصفة رعدية, مطر

TAF: SLLP 140440Z 1406/1506 07005KT 3000E VCFG FEW002 SCT012 TX18/1420Z TN04/1410Z BECMG 1412/1414 13010KT 9999 NSW SCT015 FEW017CB SCT070 TEMPO 1418/1422 5000 TSRA

أرصاد الطقس والتوقعات من أكثر من 4000 مطار (تقارير الطقس للمطار METAR والتنبؤ بالطقس بالمطارTAF).

المحطات المتاحة هي النقط الصفراء والحمراء على الخريطة.

حرك المؤشر فوق النقطة لمعرفة اسم المحطة.

ثم انقر لمعرفة أرصاد وتوقعات الطقس.

لتغيير الخارطة: اضغط على الأزرار الخضراء مع رمز الصليب الأسود للتكبير. على الزر الأخضر مع شرطة للتصغير، أو على الأسهم الخضراء للخرائط المجاورة.


METAR-TAF: